sensor_id;sensor_type;location;lat;lon;timestamp;pressure;altitude;pressure_sealevel;temperature;humidity
20444;BME280;10381;53.730;10.010;2024-03-25T00:03:16;99392.72;;;4.72;100.00
20444;BME280;10381;53.730;10.010;2024-03-25T00:07:17;99409.28;;;4.73;100.00
20444;BME280;10381;53.730;10.010;2024-03-25T00:11:17;99416.34;;;4.72;100.00
20444;BME280;10381;53.730;10.010;2024-03-25T00:15:18;99439.25;;;4.70;100.00
20444;BME280;10381;53.730;10.010;2024-03-25T00:19:19;99451.97;;;4.75;100.00
20444;BME280;10381;53.730;10.010;2024-03-25T00:23:20;99464.94;;;4.76;100.00
20444;BME280;10381;53.730;10.010;2024-03-25T00:27:20;99480.56;;;4.78;100.00
20444;BME280;10381;53.730;10.010;2024-03-25T00:31:21;99483.19;;;4.78;100.00
20444;BME280;10381;53.730;10.010;2024-03-25T00:35:21;99497.56;;;4.83;100.00
20444;BME280;10381;53.730;10.010;2024-03-25T00:39:21;99498.44;;;4.84;100.00
20444;BME280;10381;53.730;10.010;2024-03-25T00:43:22;99514.28;;;4.82;100.00
20444;BME280;10381;53.730;10.010;2024-03-25T00:47:23;99508.06;;;4.83;100.00
20444;BME280;10381;53.730;10.010;2024-03-25T00:51:23;99515.94;;;4.83;100.00
20444;BME280;10381;53.730;10.010;2024-03-25T00:55:23;99518.97;;;4.79;100.00
20444;BME280;10381;53.730;10.010;2024-03-25T00:59:24;99519.22;;;4.76;100.00
20444;BME280;10381;53.730;10.010;2024-03-25T01:03:25;99496.25;;;4.68;100.00
20444;BME280;10381;53.730;10.010;2024-03-25T01:07:25;99479.09;;;4.64;100.00
20444;BME280;10381;53.730;10.010;2024-03-25T01:11:26;99461.59;;;4.64;100.00
20444;BME280;10381;53.730;10.010;2024-03-25T01:15:26;99457.03;;;4.66;100.00
20444;BME280;10381;53.730;10.010;2024-03-25T01:19:26;99451.78;;;4.66;100.00
20444;BME280;10381;53.730;10.010;2024-03-25T01:23:26;99449.16;;;4.66;100.00
20444;BME280;10381;53.730;10.010;2024-03-25T01:27:27;99441.16;;;4.68;100.00
20444;BME280;10381;53.730;10.010;2024-03-25T01:31:27;99440.22;;;4.69;100.00
20444;BME280;10381;53.730;10.010;2024-03-25T01:35:27;99443.06;;;4.66;100.00
20444;BME280;10381;53.730;10.010;2024-03-25T01:39:28;99442.25;;;4.65;100.00
20444;BME280;10381;53.730;10.010;2024-03-25T01:43:28;99446.53;;;4.66;100.00
20444;BME280;10381;53.730;10.010;2024-03-25T01:47:30;99441.03;;;4.69;100.00
20444;BME280;10381;53.730;10.010;2024-03-25T01:51:33;99437.44;;;4.70;100.00
20444;BME280;10381;53.730;10.010;2024-03-25T01:55:35;99434.97;;;4.69;100.00
20444;BME280;10381;53.730;10.010;2024-03-25T01:59:36;99441.16;;;4.68;100.00
20444;BME280;10381;53.730;10.010;2024-03-25T02:03:37;99435.78;;;4.69;100.00
20444;BME280;10381;53.730;10.010;2024-03-25T02:07:38;99443.66;;;4.69;100.00
20444;BME280;10381;53.730;10.010;2024-03-25T02:11:39;99452.25;;;4.72;100.00
20444;BME280;10381;53.730;10.010;2024-03-25T02:15:41;99454.16;;;4.69;100.00
20444;BME280;10381;53.730;10.010;2024-03-25T02:19:42;99474.19;;;4.70;100.00
20444;BME280;10381;53.730;10.010;2024-03-25T02:23:44;99463.69;;;4.70;100.00
20444;BME280;10381;53.730;10.010;2024-03-25T02:27:45;99469.47;;;4.64;100.00
20444;BME280;10381;53.730;10.010;2024-03-25T02:31:45;99472.59;;;4.58;100.00
20444;BME280;10381;53.730;10.010;2024-03-25T02:35:47;99484.28;;;4.54;100.00
20444;BME280;10381;53.730;10.010;2024-03-25T02:39:47;99490.19;;;4.46;100.00
20444;BME280;10381;53.730;10.010;2024-03-25T02:43:48;99498.31;;;4.43;100.00
20444;BME280;10381;53.730;10.010;2024-03-25T02:47:50;99511.09;;;4.37;100.00
20444;BME280;10381;53.730;10.010;2024-03-25T02:51:50;99520.94;;;4.44;100.00
20444;BME280;10381;53.730;10.010;2024-03-25T02:55:50;99531.69;;;4.41;100.00
20444;BME280;10381;53.730;10.010;2024-03-25T02:59:50;99541.00;;;4.45;100.00
20444;BME280;10381;53.730;10.010;2024-03-25T03:03:52;99553.38;;;4.43;100.00
20444;BME280;10381;53.730;10.010;2024-03-25T03:07:52;99559.00;;;4.39;100.00
20444;BME280;10381;53.730;10.010;2024-03-25T03:11:52;99573.66;;;4.41;100.00
20444;BME280;10381;53.730;10.010;2024-03-25T03:15:52;99578.34;;;4.38;100.00
20444;BME280;10381;53.730;10.010;2024-03-25T03:19:53;99581.91;;;4.37;100.00
20444;BME280;10381;53.730;10.010;2024-03-25T03:23:53;99592.38;;;4.37;100.00
20444;BME280;10381;53.730;10.010;2024-03-25T03:27:53;99598.59;;;4.36;100.00
20444;BME280;10381;53.730;10.010;2024-03-25T03:31:53;99597.63;;;4.37;100.00
20444;BME280;10381;53.730;10.010;2024-03-25T03:35:54;99604.56;;;4.38;100.00
20444;BME280;10381;53.730;10.010;2024-03-25T03:39:56;99616.09;;;4.35;100.00
20444;BME280;10381;53.730;10.010;2024-03-25T03:43:56;99627.19;;;4.39;100.00
20444;BME280;10381;53.730;10.010;2024-03-25T03:47:56;99629.22;;;4.35;100.00
20444;BME280;10381;53.730;10.010;2024-03-25T03:51:56;99637.69;;;4.39;100.00
20444;BME280;10381;53.730;10.010;2024-03-25T03:55:59;99649.00;;;4.39;100.00
20444;BME280;10381;53.730;10.010;2024-03-25T04:00:00;99652.69;;;4.37;100.00
20444;BME280;10381;53.730;10.010;2024-03-25T04:04:00;99662.25;;;4.38;100.00
20444;BME280;10381;53.730;10.010;2024-03-25T04:08:00;99664.88;;;4.38;100.00
20444;BME280;10381;53.730;10.010;2024-03-25T04:12:01;99689.03;;;4.41;100.00
20444;BME280;10381;53.730;10.010;2024-03-25T04:16:05;99702.41;;;4.38;100.00
20444;BME280;10381;53.730;10.010;2024-03-25T04:20:06;99720.16;;;4.35;100.00
20444;BME280;10381;53.730;10.010;2024-03-25T04:24:10;99726.38;;;4.34;100.00
20444;BME280;10381;53.730;10.010;2024-03-25T04:28:11;99746.84;;;4.40;100.00
20444;BME280;10381;53.730;10.010;2024-03-25T04:32:11;99760.94;;;4.39;100.00
20444;BME280;10381;53.730;10.010;2024-03-25T04:36:11;99777.25;;;4.42;100.00
20444;BME280;10381;53.730;10.010;2024-03-25T04:40:12;99792.88;;;4.44;100.00
20444;BME280;10381;53.730;10.010;2024-03-25T04:44:18;99816.72;;;4.41;100.00
20444;BME280;10381;53.730;10.010;2024-03-25T04:48:19;99830.28;;;4.35;100.00
20444;BME280;10381;53.730;10.010;2024-03-25T04:52:19;99838.88;;;4.25;100.00
20444;BME280;10381;53.730;10.010;2024-03-25T04:56:23;99855.66;;;4.23;100.00
20444;BME280;10381;53.730;10.010;2024-03-25T05:00:23;99869.13;;;4.18;100.00
20444;BME280;10381;53.730;10.010;2024-03-25T05:04:23;99890.81;;;4.09;100.00
20444;BME280;10381;53.730;10.010;2024-03-25T05:08:24;99899.75;;;4.07;100.00
20444;BME280;10381;53.730;10.010;2024-03-25T05:12:24;99904.81;;;3.97;100.00
20444;BME280;10381;53.730;10.010;2024-03-25T05:16:29;99904.63;;;4.00;100.00
20444;BME280;10381;53.730;10.010;2024-03-25T05:20:30;99910.44;;;4.03;100.00
20444;BME280;10381;53.730;10.010;2024-03-25T05:24:30;99915.44;;;3.95;100.00
20444;BME280;10381;53.730;10.010;2024-03-25T05:28:31;99898.03;;;3.94;100.00
20444;BME280;10381;53.730;10.010;2024-03-25T05:32:31;99889.09;;;3.97;100.00
20444;BME280;10381;53.730;10.010;2024-03-25T05:36:31;99874.34;;;3.96;100.00
20444;BME280;10381;53.730;10.010;2024-03-25T05:40:32;99870.75;;;3.97;100.00
20444;BME280;10381;53.730;10.010;2024-03-25T05:44:32;99868.28;;;3.95;100.00
20444;BME280;10381;53.730;10.010;2024-03-25T05:48:32;99857.91;;;3.94;100.00
20444;BME280;10381;53.730;10.010;2024-03-25T05:52:32;99852.66;;;3.94;100.00
20444;BME280;10381;53.730;10.010;2024-03-25T05:56:33;99856.00;;;3.96;100.00
20444;BME280;10381;53.730;10.010;2024-03-25T06:00:34;99859.09;;;4.01;100.00
20444;BME280;10381;53.730;10.010;2024-03-25T06:04:34;99847.44;;;4.05;100.00
20444;BME280;10381;53.730;10.010;2024-03-25T06:08:35;99849.09;;;4.06;100.00
20444;BME280;10381;53.730;10.010;2024-03-25T06:12:35;99854.13;;;4.09;100.00
20444;BME280;10381;53.730;10.010;2024-03-25T06:16:35;99855.19;;;4.18;100.00
20444;BME280;10381;53.730;10.010;2024-03-25T06:20:36;99864.50;;;4.22;100.00
20444;BME280;10381;53.730;10.010;2024-03-25T06:24:36;99870.69;;;4.32;100.00
20444;BME280;10381;53.730;10.010;2024-03-25T06:28:36;99868.56;;;4.26;100.00
20444;BME280;10381;53.730;10.010;2024-03-25T06:32:37;99882.53;;;4.38;100.00
20444;BME280;10381;53.730;10.010;2024-03-25T06:36:56;99876.56;;;4.58;100.00
20444;BME280;10381;53.730;10.010;2024-03-25T06:40:56;99897.06;;;4.64;100.00
20444;BME280;10381;53.730;10.010;2024-03-25T06:44:56;99903.00;;;4.66;100.00
20444;BME280;10381;53.730;10.010;2024-03-25T06:48:57;99911.59;;;4.46;100.00
20444;BME280;10381;53.730;10.010;2024-03-25T06:52:57;99907.06;;;4.37;100.00
20444;BME280;10381;53.730;10.010;2024-03-25T06:56:57;99910.28;;;4.29;100.00
20444;BME280;10381;53.730;10.010;2024-03-25T07:01:05;99894.91;;;4.24;100.00
20444;BME280;10381;53.730;10.010;2024-03-25T07:05:07;99881.06;;;4.22;100.00
20444;BME280;10381;53.730;10.010;2024-03-25T07:09:07;99876.44;;;4.26;100.00
20444;BME280;10381;53.730;10.010;2024-03-25T07:13:11;99862.84;;;4.55;100.00
20444;BME280;10381;53.730;10.010;2024-03-25T07:17:11;99858.91;;;4.60;100.00
20444;BME280;10381;53.730;10.010;2024-03-25T07:21:12;99869.16;;;4.75;100.00
20444;BME280;10381;53.730;10.010;2024-03-25T07:25:12;99884.91;;;4.63;100.00
20444;BME280;10381;53.730;10.010;2024-03-25T07:29:12;99889.19;;;4.76;100.00
20444;BME280;10381;53.730;10.010;2024-03-25T07:33:12;99903.03;;;4.89;100.00
20444;BME280;10381;53.730;10.010;2024-03-25T07:37:13;99932.00;;;4.76;100.00
20444;BME280;10381;53.730;10.010;2024-03-25T07:41:13;99946.06;;;4.64;100.00
20444;BME280;10381;53.730;10.010;2024-03-25T07:45:13;99949.53;;;4.76;100.00
20444;BME280;10381;53.730;10.010;2024-03-25T07:49:14;99953.81;;;4.88;100.00
20444;BME280;10381;53.730;10.010;2024-03-25T07:53:14;99954.31;;;5.04;100.00
20444;BME280;10381;53.730;10.010;2024-03-25T07:57:14;99961.72;;;4.99;100.00
20444;BME280;10381;53.730;10.010;2024-03-25T08:01:15;99976.25;;;5.26;100.00
20444;BME280;10381;53.730;10.010;2024-03-25T08:05:15;100007.50;;;5.29;100.00
20444;BME280;10381;53.730;10.010;2024-03-25T08:09:15;100022.34;;;5.85;100.00
20444;BME280;10381;53.730;10.010;2024-03-25T08:13:17;100057.41;;;5.40;100.00
20444;BME280;10381;53.730;10.010;2024-03-25T08:17:17;100076.88;;;5.26;100.00
20444;BME280;10381;53.730;10.010;2024-03-25T08:21:17;100069.84;;;5.16;100.00
20444;BME280;10381;53.730;10.010;2024-03-25T08:25:18;100067.81;;;5.08;100.00
20444;BME280;10381;53.730;10.010;2024-03-25T08:29:18;100084.16;;;5.45;100.00
20444;BME280;10381;53.730;10.010;2024-03-25T08:33:18;100095.63;;;5.55;100.00
20444;BME280;10381;53.730;10.010;2024-03-25T08:37:18;100124.53;;;5.44;100.00
20444;BME280;10381;53.730;10.010;2024-03-25T08:41:19;100121.38;;;5.84;100.00
20444;BME280;10381;53.730;10.010;2024-03-25T08:45:19;100129.78;;;5.89;100.00
20444;BME280;10381;53.730;10.010;2024-03-25T08:49:20;100138.63;;;6.75;100.00
20444;BME280;10381;53.730;10.010;2024-03-25T08:53:20;100168.50;;;6.86;100.00
20444;BME280;10381;53.730;10.010;2024-03-25T08:57:21;100182.75;;;6.39;100.00
20444;BME280;10381;53.730;10.010;2024-03-25T09:01:21;100194.88;;;5.52;100.00
20444;BME280;10381;53.730;10.010;2024-03-25T09:05:24;100149.97;;;4.86;100.00
20444;BME280;10381;53.730;10.010;2024-03-25T09:09:25;100090.94;;;4.56;100.00
20444;BME280;10381;53.730;10.010;2024-03-25T09:13:44;100047.03;;;4.94;100.00
20444;BME280;10381;53.730;10.010;2024-03-25T09:17:46;100048.06;;;4.80;100.00
20444;BME280;10381;53.730;10.010;2024-03-25T09:21:46;100043.53;;;4.82;100.00
20444;BME280;10381;53.730;10.010;2024-03-25T09:25:55;100050.03;;;5.23;100.00
20444;BME280;10381;53.730;10.010;2024-03-25T09:29:55;100059.88;;;5.75;100.00
20444;BME280;10381;53.730;10.010;2024-03-25T09:33:55;100085.84;;;6.24;100.00
20444;BME280;10381;53.730;10.010;2024-03-25T09:37:55;100108.69;;;6.23;100.00
20444;BME280;10381;53.730;10.010;2024-03-25T09:41:57;100138.47;;;6.24;100.00
20444;BME280;10381;53.730;10.010;2024-03-25T09:46:01;100181.06;;;6.06;100.00
20444;BME280;10381;53.730;10.010;2024-03-25T09:50:04;100216.53;;;6.01;100.00
20444;BME280;10381;53.730;10.010;2024-03-25T09:54:06;100248.94;;;6.24;100.00
20444;BME280;10381;53.730;10.010;2024-03-25T09:58:07;100266.34;;;7.02;100.00
20444;BME280;10381;53.730;10.010;2024-03-25T10:02:10;100302.34;;;6.69;100.00
20444;BME280;10381;53.730;10.010;2024-03-25T10:06:11;100297.09;;;6.69;100.00
20444;BME280;10381;53.730;10.010;2024-03-25T10:10:11;100315.97;;;6.63;100.00
20444;BME280;10381;53.730;10.010;2024-03-25T10:14:11;100303.84;;;6.83;100.00
20444;BME280;10381;53.730;10.010;2024-03-25T10:18:12;100303.84;;;6.83;100.00
20444;BME280;10381;53.730;10.010;2024-03-25T10:22:12;100314.47;;;7.36;100.00
20444;BME280;10381;53.730;10.010;2024-03-25T10:26:25;100321.25;;;7.18;100.00
20444;BME280;10381;53.730;10.010;2024-03-25T10:30:27;100332.25;;;7.55;100.00
20444;BME280;10381;53.730;10.010;2024-03-25T10:34:28;100330.69;;;7.20;100.00
20444;BME280;10381;53.730;10.010;2024-03-25T10:38:29;100347.50;;;7.08;100.00
20444;BME280;10381;53.730;10.010;2024-03-25T10:42:30;100357.31;;;7.06;100.00
20444;BME280;10381;53.730;10.010;2024-03-25T10:46:31;100350.19;;;6.63;100.00
20444;BME280;10381;53.730;10.010;2024-03-25T10:50:33;100361.16;;;7.02;100.00
20444;BME280;10381;53.730;10.010;2024-03-25T10:54:35;100364.94;;;7.53;100.00
20444;BME280;10381;53.730;10.010;2024-03-25T10:58:36;100373.50;;;8.29;100.00
20444;BME280;10381;53.730;10.010;2024-03-25T11:02:36;100376.38;;;8.16;100.00
20444;BME280;10381;53.730;10.010;2024-03-25T11:06:36;100389.81;;;8.13;100.00
20444;BME280;10381;53.730;10.010;2024-03-25T11:10:41;100387.13;;;8.86;100.00
20444;BME280;10381;53.730;10.010;2024-03-25T11:14:42;100375.53;;;8.16;100.00
20444;BME280;10381;53.730;10.010;2024-03-25T11:18:50;100376.31;;;7.21;100.00
20444;BME280;10381;53.730;10.010;2024-03-25T11:22:52;100384.16;;;7.43;100.00
20444;BME280;10381;53.730;10.010;2024-03-25T11:26:53;100354.09;;;8.30;100.00
20444;BME280;10381;53.730;10.010;2024-03-25T11:30:54;100331.03;;;8.01;100.00
20444;BME280;10381;53.730;10.010;2024-03-25T11:34:55;100329.22;;;8.02;100.00
20444;BME280;10381;53.730;10.010;2024-03-25T11:39:05;100334.00;;;8.18;100.00
20444;BME280;10381;53.730;10.010;2024-03-25T11:43:09;100316.63;;;8.15;100.00
20444;BME280;10381;53.730;10.010;2024-03-25T11:47:11;100317.28;;;8.38;100.00
20444;BME280;10381;53.730;10.010;2024-03-25T11:51:16;100317.50;;;8.16;100.00
20444;BME280;10381;53.730;10.010;2024-03-25T11:55:17;100317.50;;;7.74;100.00
20444;BME280;10381;53.730;10.010;2024-03-25T11:59:19;100315.72;;;8.26;100.00
20444;BME280;10381;53.730;10.010;2024-03-25T12:03:19;100302.09;;;8.21;100.00
20444;BME280;10381;53.730;10.010;2024-03-25T12:07:19;100300.31;;;8.62;100.00
20444;BME280;10381;53.730;10.010;2024-03-25T12:11:20;100298.88;;;8.17;100.00
20444;BME280;10381;53.730;10.010;2024-03-25T12:15:20;100293.88;;;7.93;100.00
20444;BME280;10381;53.730;10.010;2024-03-25T12:19:24;100285.94;;;8.14;100.00
20444;BME280;10381;53.730;10.010;2024-03-25T12:23:29;100288.38;;;7.75;100.00
20444;BME280;10381;53.730;10.010;2024-03-25T12:27:29;100280.66;;;8.14;100.00
20444;BME280;10381;53.730;10.010;2024-03-25T12:31:30;100285.66;;;8.17;100.00
20444;BME280;10381;53.730;10.010;2024-03-25T12:35:34;100288.59;;;8.14;100.00
20444;BME280;10381;53.730;10.010;2024-03-25T12:39:35;100280.91;;;9.02;100.00
20444;BME280;10381;53.730;10.010;2024-03-25T12:43:44;100264.38;;;9.48;100.00
20444;BME280;10381;53.730;10.010;2024-03-25T12:47:44;100263.22;;;9.60;100.00
20444;BME280;10381;53.730;10.010;2024-03-25T12:51:45;100282.13;;;8.28;100.00
20444;BME280;10381;53.730;10.010;2024-03-25T12:55:46;100288.94;;;7.79;100.00
20444;BME280;10381;53.730;10.010;2024-03-25T12:59:46;100304.97;;;7.87;100.00
20444;BME280;10381;53.730;10.010;2024-03-25T13:03:47;100319.50;;;7.60;100.00
20444;BME280;10381;53.730;10.010;2024-03-25T13:07:47;100338.75;;;7.40;100.00
20444;BME280;10381;53.730;10.010;2024-03-25T13:11:47;100331.78;;;7.71;100.00
20444;BME280;10381;53.730;10.010;2024-03-25T13:15:48;100325.53;;;8.14;100.00
20444;BME280;10381;53.730;10.010;2024-03-25T13:19:48;100297.16;;;8.37;100.00
20444;BME280;10381;53.730;10.010;2024-03-25T13:23:49;100287.78;;;8.23;100.00
20444;BME280;10381;53.730;10.010;2024-03-25T13:27:49;100281.38;;;8.47;100.00
20444;BME280;10381;53.730;10.010;2024-03-25T13:31:49;100272.41;;;8.69;100.00
20444;BME280;10381;53.730;10.010;2024-03-25T13:35:51;100271.13;;;8.63;100.00
20444;BME280;10381;53.730;10.010;2024-03-25T13:39:51;100258.91;;;8.72;100.00
20444;BME280;10381;53.730;10.010;2024-03-25T13:43:53;100251.59;;;8.85;100.00
20444;BME280;10381;53.730;10.010;2024-03-25T13:47:53;100260.34;;;8.36;100.00
20444;BME280;10381;53.730;10.010;2024-03-25T13:51:57;100250.97;;;8.22;100.00
20444;BME280;10381;53.730;10.010;2024-03-25T13:56:02;100254.75;;;8.69;100.00
20444;BME280;10381;53.730;10.010;2024-03-25T14:00:03;100245.72;;;9.01;100.00
20444;BME280;10381;53.730;10.010;2024-03-25T14:04:08;100241.94;;;8.65;100.00
20444;BME280;10381;53.730;10.010;2024-03-25T14:08:09;100246.81;;;8.60;100.00
20444;BME280;10381;53.730;10.010;2024-03-25T14:12:09;100243.03;;;8.12;100.00
20444;BME280;10381;53.730;10.010;2024-03-25T14:16:09;100237.38;;;8.67;100.00
20444;BME280;10381;53.730;10.010;2024-03-25T14:20:10;100241.34;;;8.42;100.00
20444;BME280;10381;53.730;10.010;2024-03-25T14:24:10;100237.09;;;8.29;100.00
20444;BME280;10381;53.730;10.010;2024-03-25T14:28:11;100234.00;;;8.15;100.00
20444;BME280;10381;53.730;10.010;2024-03-25T14:32:11;100240.63;;;7.99;100.00
20444;BME280;10381;53.730;10.010;2024-03-25T14:36:11;100231.00;;;7.98;100.00
20444;BME280;10381;53.730;10.010;2024-03-25T14:40:12;100231.16;;;8.27;100.00
20444;BME280;10381;53.730;10.010;2024-03-25T14:44:13;100214.44;;;8.87;100.00
20444;BME280;10381;53.730;10.010;2024-03-25T14:48:13;100212.38;;;8.90;100.00
20444;BME280;10381;53.730;10.010;2024-03-25T14:52:13;100197.63;;;9.17;100.00
20444;BME280;10381;53.730;10.010;2024-03-25T14:56:15;100205.00;;;9.04;100.00
20444;BME280;10381;53.730;10.010;2024-03-25T15:00:15;100198.53;;;9.35;100.00
20444;BME280;10381;53.730;10.010;2024-03-25T15:04:16;100193.31;;;8.96;100.00
20444;BME280;10381;53.730;10.010;2024-03-25T15:08:16;100188.00;;;8.48;100.00
20444;BME280;10381;53.730;10.010;2024-03-25T15:12:16;100185.59;;;8.25;100.00
20444;BME280;10381;53.730;10.010;2024-03-25T15:16:16;100189.25;;;8.53;100.00
20444;BME280;10381;53.730;10.010;2024-03-25T15:20:17;100185.22;;;8.40;100.00
20444;BME280;10381;53.730;10.010;2024-03-25T15:24:17;100190.06;;;8.35;100.00
20444;BME280;10381;53.730;10.010;2024-03-25T15:28:17;100182.13;;;8.35;100.00
20444;BME280;10381;53.730;10.010;2024-03-25T15:32:17;100180.94;;;8.87;100.00
20444;BME280;10381;53.730;10.010;2024-03-25T15:36:18;100183.56;;;8.97;100.00
20444;BME280;10381;53.730;10.010;2024-03-25T15:40:18;100174.56;;;8.90;100.00
20444;BME280;10381;53.730;10.010;2024-03-25T15:44:19;100170.66;;;8.65;100.00
20444;BME280;10381;53.730;10.010;2024-03-25T15:48:19;100179.16;;;8.59;100.00
20444;BME280;10381;53.730;10.010;2024-03-25T15:52:19;100179.56;;;8.54;100.00
20444;BME280;10381;53.730;10.010;2024-03-25T15:56:19;100174.41;;;8.62;100.00
20444;BME280;10381;53.730;10.010;2024-03-25T16:00:20;100182.75;;;8.67;100.00
20444;BME280;10381;53.730;10.010;2024-03-25T16:04:20;100170.91;;;9.20;100.00
20444;BME280;10381;53.730;10.010;2024-03-25T16:08:20;100169.81;;;8.93;100.00
20444;BME280;10381;53.730;10.010;2024-03-25T16:12:21;100176.56;;;8.38;100.00
20444;BME280;10381;53.730;10.010;2024-03-25T16:16:21;100185.69;;;8.14;100.00
20444;BME280;10381;53.730;10.010;2024-03-25T16:20:22;100189.91;;;7.96;100.00
20444;BME280;10381;53.730;10.010;2024-03-25T16:24:22;100185.00;;;7.81;100.00
20444;BME280;10381;53.730;10.010;2024-03-25T16:28:22;100187.16;;;7.66;100.00
20444;BME280;10381;53.730;10.010;2024-03-25T16:32:22;100188.09;;;7.56;100.00
20444;BME280;10381;53.730;10.010;2024-03-25T16:36:23;100188.22;;;7.54;100.00
20444;BME280;10381;53.730;10.010;2024-03-25T16:40:24;100191.94;;;7.52;100.00
20444;BME280;10381;53.730;10.010;2024-03-25T16:44:24;100184.97;;;7.41;100.00
20444;BME280;10381;53.730;10.010;2024-03-25T16:48:25;100190.19;;;7.31;100.00
20444;BME280;10381;53.730;10.010;2024-03-25T16:52:25;100192.03;;;7.19;100.00
20444;BME280;10381;53.730;10.010;2024-03-25T16:56:25;100184.38;;;7.16;100.00
20444;BME280;10381;53.730;10.010;2024-03-25T17:00:28;100195.47;;;6.99;100.00
20444;BME280;10381;53.730;10.010;2024-03-25T17:04:28;100193.91;;;6.75;100.00
20444;BME280;10381;53.730;10.010;2024-03-25T17:08:28;100197.44;;;6.53;100.00
20444;BME280;10381;53.730;10.010;2024-03-25T17:12:28;100208.03;;;6.31;100.00
20444;BME280;10381;53.730;10.010;2024-03-25T17:16:32;100209.56;;;6.45;100.00
20444;BME280;10381;53.730;10.010;2024-03-25T17:20:32;100220.84;;;6.13;100.00
20444;BME280;10381;53.730;10.010;2024-03-25T17:24:32;100229.19;;;5.73;100.00
20444;BME280;10381;53.730;10.010;2024-03-25T17:28:33;100246.22;;;5.45;100.00
20444;BME280;10381;53.730;10.010;2024-03-25T17:32:35;100276.00;;;4.97;100.00
20444;BME280;10381;53.730;10.010;2024-03-25T17:36:36;100277.69;;;4.98;100.00
20444;BME280;10381;53.730;10.010;2024-03-25T17:40:37;100272.59;;;4.84;100.00
20444;BME280;10381;53.730;10.010;2024-03-25T17:44:37;100263.50;;;4.40;100.00
20444;BME280;10381;53.730;10.010;2024-03-25T17:48:39;100241.03;;;3.99;100.00
20444;BME280;10381;53.730;10.010;2024-03-25T17:52:39;100227.84;;;3.62;100.00
20444;BME280;10381;53.730;10.010;2024-03-25T17:56:39;100226.28;;;3.47;100.00
20444;BME280;10381;53.730;10.010;2024-03-25T18:00:40;100211.19;;;3.37;100.00
20444;BME280;10381;53.730;10.010;2024-03-25T18:04:40;100204.16;;;3.25;100.00
20444;BME280;10381;53.730;10.010;2024-03-25T18:08:40;100191.03;;;3.12;100.00
20444;BME280;10381;53.730;10.010;2024-03-25T18:12:40;100171.03;;;2.98;100.00
20444;BME280;10381;53.730;10.010;2024-03-25T18:16:41;100148.50;;;2.83;100.00
20444;BME280;10381;53.730;10.010;2024-03-25T18:20:42;100124.81;;;2.59;100.00
20444;BME280;10381;53.730;10.010;2024-03-25T18:24:42;100116.78;;;2.35;100.00
20444;BME280;10381;53.730;10.010;2024-03-25T18:28:42;100110.16;;;2.17;100.00
20444;BME280;10381;53.730;10.010;2024-03-25T18:32:43;100101.91;;;1.96;100.00
20444;BME280;10381;53.730;10.010;2024-03-25T18:36:46;100092.31;;;1.82;100.00
20444;BME280;10381;53.730;10.010;2024-03-25T18:40:46;100090.19;;;1.74;100.00
20444;BME280;10381;53.730;10.010;2024-03-25T18:44:48;100085.53;;;1.65;100.00
20444;BME280;10381;53.730;10.010;2024-03-25T18:48:48;100077.44;;;1.55;100.00
20444;BME280;10381;53.730;10.010;2024-03-25T18:52:49;100065.13;;;1.57;100.00
20444;BME280;10381;53.730;10.010;2024-03-25T18:56:49;100051.56;;;1.38;100.00
20444;BME280;10381;53.730;10.010;2024-03-25T19:00:50;100046.06;;;1.28;100.00
20444;BME280;10381;53.730;10.010;2024-03-25T19:04:50;100043.47;;;1.28;100.00
20444;BME280;10381;53.730;10.010;2024-03-25T19:08:50;100035.41;;;1.45;100.00
20444;BME280;10381;53.730;10.010;2024-03-25T19:12:50;100009.63;;;1.95;100.00
20444;BME280;10381;53.730;10.010;2024-03-25T19:16:51;100002.06;;;2.18;100.00
20444;BME280;10381;53.730;10.010;2024-03-25T19:20:51;100003.03;;;2.29;100.00
20444;BME280;10381;53.730;10.010;2024-03-25T19:24:51;99972.91;;;2.49;100.00
20444;BME280;10381;53.730;10.010;2024-03-25T19:28:52;99971.78;;;2.66;100.00
20444;BME280;10381;53.730;10.010;2024-03-25T19:32:52;99968.94;;;2.69;100.00
20444;BME280;10381;53.730;10.010;2024-03-25T19:36:53;99964.69;;;2.55;100.00
20444;BME280;10381;53.730;10.010;2024-03-25T19:40:54;99967.69;;;2.24;100.00
20444;BME280;10381;53.730;10.010;2024-03-25T19:44:54;99969.88;;;1.90;100.00
20444;BME280;10381;53.730;10.010;2024-03-25T19:48:55;99991.75;;;1.62;100.00
20444;BME280;10381;53.730;10.010;2024-03-25T19:52:55;99990.28;;;1.43;100.00
20444;BME280;10381;53.730;10.010;2024-03-25T19:56:56;99999.94;;;1.28;100.00
20444;BME280;10381;53.730;10.010;2024-03-25T20:01:05;99991.56;;;1.09;100.00
20444;BME280;10381;53.730;10.010;2024-03-25T20:05:05;99981.69;;;0.85;100.00
20444;BME280;10381;53.730;10.010;2024-03-25T20:09:06;99969.34;;;0.75;100.00
20444;BME280;10381;53.730;10.010;2024-03-25T20:13:06;99964.75;;;0.78;100.00
20444;BME280;10381;53.730;10.010;2024-03-25T20:17:08;99960.28;;;0.52;100.00
20444;BME280;10381;53.730;10.010;2024-03-25T20:21:09;99954.50;;;0.32;100.00
20444;BME280;10381;53.730;10.010;2024-03-25T20:25:09;99949.91;;;0.21;100.00
20444;BME280;10381;53.730;10.010;2024-03-25T20:29:09;99942.00;;;0.23;100.00
20444;BME280;10381;53.730;10.010;2024-03-25T20:33:09;99941.97;;;0.09;100.00
20444;BME280;10381;53.730;10.010;2024-03-25T20:37:10;99936.19;;;0.04;100.00
20444;BME280;10381;53.730;10.010;2024-03-25T20:41:10;99936.53;;;-0.03;100.00
20444;BME280;10381;53.730;10.010;2024-03-25T20:45:13;99934.69;;;-0.01;100.00
20444;BME280;10381;53.730;10.010;2024-03-25T20:49:13;99931.44;;;-0.04;100.00
20444;BME280;10381;53.730;10.010;2024-03-25T20:53:13;99925.22;;;-0.02;100.00